sensor_id;sensor_type;location;lat;lon;timestamp;temperature;humidity
78516;SHT31;67815;51.990;5.688;2023-06-24T00:00:47;21.9;61.4
78516;SHT31;67815;51.990;5.688;2023-06-24T00:03:19;21.9;61.5
78516;SHT31;67815;51.990;5.688;2023-06-24T00:05:49;21.9;61.8
78516;SHT31;67815;51.990;5.688;2023-06-24T00:08:19;21.9;62.0
78516;SHT31;67815;51.990;5.688;2023-06-24T00:10:50;21.9;61.9
78516;SHT31;67815;51.990;5.688;2023-06-24T00:13:20;21.9;62.1
78516;SHT31;67815;51.990;5.688;2023-06-24T00:15:49;21.9;62.2
78516;SHT31;67815;51.990;5.688;2023-06-24T00:18:19;21.9;62.5
78516;SHT31;67815;51.990;5.688;2023-06-24T00:20:51;21.8;62.5
78516;SHT31;67815;51.990;5.688;2023-06-24T00:23:22;21.8;62.2
78516;SHT31;67815;51.990;5.688;2023-06-24T00:25:54;21.8;62.4
78516;SHT31;67815;51.990;5.688;2023-06-24T00:28:26;21.8;62.5
78516;SHT31;67815;51.990;5.688;2023-06-24T00:30:56;21.8;62.5
78516;SHT31;67815;51.990;5.688;2023-06-24T00:33:25;21.8;62.6
78516;SHT31;67815;51.990;5.688;2023-06-24T00:35:55;21.8;62.7
78516;SHT31;67815;51.990;5.688;2023-06-24T00:38:25;21.8;63.0
78516;SHT31;67815;51.990;5.688;2023-06-24T00:40:56;21.8;62.9
78516;SHT31;67815;51.990;5.688;2023-06-24T00:43:26;21.8;62.2
78516;SHT31;67815;51.990;5.688;2023-06-24T00:45:58;21.8;62.3
78516;SHT31;67815;51.990;5.688;2023-06-24T00:48:28;21.8;62.4
78516;SHT31;67815;51.990;5.688;2023-06-24T00:50:59;21.8;62.2
78516;SHT31;67815;51.990;5.688;2023-06-24T00:53:28;21.8;62.3
78516;SHT31;67815;51.990;5.688;2023-06-24T00:55:59;21.8;62.8
78516;SHT31;67815;51.990;5.688;2023-06-24T00:58:32;21.8;62.9
78516;SHT31;67815;51.990;5.688;2023-06-24T01:01:04;21.8;62.8
78516;SHT31;67815;51.990;5.688;2023-06-24T01:03:36;21.7;62.5
78516;SHT31;67815;51.990;5.688;2023-06-24T01:06:08;21.7;63.1
78516;SHT31;67815;51.990;5.688;2023-06-24T01:08:39;21.7;62.8
78516;SHT31;67815;51.990;5.688;2023-06-24T01:11:09;21.7;62.7
78516;SHT31;67815;51.990;5.688;2023-06-24T01:13:39;21.7;62.9
78516;SHT31;67815;51.990;5.688;2023-06-24T01:16:16;21.6;63.0
78516;SHT31;67815;51.990;5.688;2023-06-24T01:18:52;21.6;63.2
78516;SHT31;67815;51.990;5.688;2023-06-24T01:21:38;21.6;63.2
78516;SHT31;67815;51.990;5.688;2023-06-24T01:24:39;21.6;63.3
78516;SHT31;67815;51.990;5.688;2023-06-24T01:27:22;21.5;63.5
78516;SHT31;67815;51.990;5.688;2023-06-24T01:30:21;21.5;63.5
78516;SHT31;67815;51.990;5.688;2023-06-24T01:32:55;21.5;63.7
78516;SHT31;67815;51.990;5.688;2023-06-24T01:35:32;21.5;63.7
78516;SHT31;67815;51.990;5.688;2023-06-24T01:38:08;21.5;63.9
78516;SHT31;67815;51.990;5.688;2023-06-24T01:40:44;21.4;64.0
78516;SHT31;67815;51.990;5.688;2023-06-24T01:43:16;21.4;64.1
78516;SHT31;67815;51.990;5.688;2023-06-24T01:45:51;21.4;64.2
78516;SHT31;67815;51.990;5.688;2023-06-24T01:48:25;21.3;64.3
78516;SHT31;67815;51.990;5.688;2023-06-24T01:50:59;21.3;64.3
78516;SHT31;67815;51.990;5.688;2023-06-24T01:53:34;21.3;64.5
78516;SHT31;67815;51.990;5.688;2023-06-24T01:56:07;21.3;64.4
78516;SHT31;67815;51.990;5.688;2023-06-24T01:58:43;21.2;64.6
78516;SHT31;67815;51.990;5.688;2023-06-24T02:01:15;21.2;64.8
78516;SHT31;67815;51.990;5.688;2023-06-24T02:03:48;21.2;65.0
78516;SHT31;67815;51.990;5.688;2023-06-24T02:06:20;21.1;65.0
78516;SHT31;67815;51.990;5.688;2023-06-24T02:08:51;21.1;65.1
78516;SHT31;67815;51.990;5.688;2023-06-24T02:11:24;21.1;65.0
78516;SHT31;67815;51.990;5.688;2023-06-24T02:13:55;21.1;65.0
78516;SHT31;67815;51.990;5.688;2023-06-24T02:16:26;21.0;65.0
78516;SHT31;67815;51.990;5.688;2023-06-24T02:18:57;21.0;65.0
78516;SHT31;67815;51.990;5.688;2023-06-24T02:21:29;21.0;65.1
78516;SHT31;67815;51.990;5.688;2023-06-24T02:24:02;21.0;65.1
78516;SHT31;67815;51.990;5.688;2023-06-24T02:26:32;21.0;65.1
78516;SHT31;67815;51.990;5.688;2023-06-24T02:29:04;20.9;65.1
78516;SHT31;67815;51.990;5.688;2023-06-24T02:31:35;20.9;65.2
78516;SHT31;67815;51.990;5.688;2023-06-24T02:34:05;20.9;65.1
78516;SHT31;67815;51.990;5.688;2023-06-24T02:36:35;20.9;65.2
78516;SHT31;67815;51.990;5.688;2023-06-24T02:39:06;20.9;65.3
78516;SHT31;67815;51.990;5.688;2023-06-24T02:41:35;20.8;65.4
78516;SHT31;67815;51.990;5.688;2023-06-24T02:44:07;20.8;65.5
78516;SHT31;67815;51.990;5.688;2023-06-24T02:46:38;20.8;65.6
78516;SHT31;67815;51.990;5.688;2023-06-24T02:49:13;20.8;65.7
78516;SHT31;67815;51.990;5.688;2023-06-24T02:51:47;20.8;65.7
78516;SHT31;67815;51.990;5.688;2023-06-24T02:54:18;20.8;65.6
78516;SHT31;67815;51.990;5.688;2023-06-24T02:56:50;20.8;65.7
78516;SHT31;67815;51.990;5.688;2023-06-24T02:59:24;20.7;65.8
78516;SHT31;67815;51.990;5.688;2023-06-24T03:01:54;20.7;65.8
78516;SHT31;67815;51.990;5.688;2023-06-24T03:04:25;20.7;65.6
78516;SHT31;67815;51.990;5.688;2023-06-24T03:06:58;20.7;65.6
78516;SHT31;67815;51.990;5.688;2023-06-24T03:09:33;20.7;65.7
78516;SHT31;67815;51.990;5.688;2023-06-24T03:12:05;20.7;65.8
78516;SHT31;67815;51.990;5.688;2023-06-24T03:14:35;20.7;65.8
78516;SHT31;67815;51.990;5.688;2023-06-24T03:17:05;20.7;65.8
78516;SHT31;67815;51.990;5.688;2023-06-24T03:19:35;20.7;65.6
78516;SHT31;67815;51.990;5.688;2023-06-24T03:22:05;20.7;65.7
78516;SHT31;67815;51.990;5.688;2023-06-24T03:24:35;20.7;65.8
78516;SHT31;67815;51.990;5.688;2023-06-24T03:27:05;20.7;66.0
78516;SHT31;67815;51.990;5.688;2023-06-24T03:29:34;20.7;65.7
78516;SHT31;67815;51.990;5.688;2023-06-24T03:32:05;20.6;65.8
78516;SHT31;67815;51.990;5.688;2023-06-24T03:34:35;20.6;65.7
78516;SHT31;67815;51.990;5.688;2023-06-24T03:37:05;20.6;65.6
78516;SHT31;67815;51.990;5.688;2023-06-24T03:39:35;20.6;65.7
78516;SHT31;67815;51.990;5.688;2023-06-24T03:42:09;20.6;65.5
78516;SHT31;67815;51.990;5.688;2023-06-24T03:44:38;20.6;65.3
78516;SHT31;67815;51.990;5.688;2023-06-24T03:47:08;20.6;65.2
78516;SHT31;67815;51.990;5.688;2023-06-24T03:49:38;20.5;65.1
78516;SHT31;67815;51.990;5.688;2023-06-24T03:52:07;20.5;65.0
78516;SHT31;67815;51.990;5.688;2023-06-24T03:54:38;20.5;65.0
78516;SHT31;67815;51.990;5.688;2023-06-24T03:57:09;20.4;65.2
78516;SHT31;67815;51.990;5.688;2023-06-24T03:59:38;20.4;65.2
78516;SHT31;67815;51.990;5.688;2023-06-24T04:02:08;20.4;65.2
78516;SHT31;67815;51.990;5.688;2023-06-24T04:04:38;20.3;65.0
78516;SHT31;67815;51.990;5.688;2023-06-24T04:07:08;20.3;65.1
78516;SHT31;67815;51.990;5.688;2023-06-24T04:09:38;20.3;65.0
78516;SHT31;67815;51.990;5.688;2023-06-24T04:12:09;20.3;65.2
78516;SHT31;67815;51.990;5.688;2023-06-24T04:14:38;20.2;64.8
78516;SHT31;67815;51.990;5.688;2023-06-24T04:17:08;20.2;65.1
78516;SHT31;67815;51.990;5.688;2023-06-24T04:19:37;20.2;65.1
78516;SHT31;67815;51.990;5.688;2023-06-24T04:22:07;20.1;64.8
78516;SHT31;67815;51.990;5.688;2023-06-24T04:24:37;20.1;64.8
78516;SHT31;67815;51.990;5.688;2023-06-24T04:27:07;20.1;65.0
78516;SHT31;67815;51.990;5.688;2023-06-24T04:29:38;20.1;65.2
78516;SHT31;67815;51.990;5.688;2023-06-24T04:32:08;20.1;65.0
78516;SHT31;67815;51.990;5.688;2023-06-24T04:34:38;20.1;65.4
78516;SHT31;67815;51.990;5.688;2023-06-24T04:37:08;20.1;65.2
78516;SHT31;67815;51.990;5.688;2023-06-24T04:39:38;20.1;65.5
78516;SHT31;67815;51.990;5.688;2023-06-24T04:42:07;20.1;65.6
78516;SHT31;67815;51.990;5.688;2023-06-24T04:44:37;20.0;65.6
78516;SHT31;67815;51.990;5.688;2023-06-24T04:47:09;20.0;65.4
78516;SHT31;67815;51.990;5.688;2023-06-24T04:49:41;20.0;64.7
78516;SHT31;67815;51.990;5.688;2023-06-24T04:52:11;20.0;64.7
78516;SHT31;67815;51.990;5.688;2023-06-24T04:54:41;20.0;65.0
78516;SHT31;67815;51.990;5.688;2023-06-24T04:57:25;20.0;65.2
78516;SHT31;67815;51.990;5.688;2023-06-24T04:59:56;20.0;65.1
78516;SHT31;67815;51.990;5.688;2023-06-24T05:02:26;20.0;65.5
78516;SHT31;67815;51.990;5.688;2023-06-24T05:04:55;20.0;65.5
78516;SHT31;67815;51.990;5.688;2023-06-24T05:07:25;20.0;65.6
78516;SHT31;67815;51.990;5.688;2023-06-24T05:09:54;20.0;65.8
78516;SHT31;67815;51.990;5.688;2023-06-24T05:12:24;20.0;65.9
78516;SHT31;67815;51.990;5.688;2023-06-24T05:14:55;20.0;65.9
78516;SHT31;67815;51.990;5.688;2023-06-24T05:17:27;20.0;65.8
78516;SHT31;67815;51.990;5.688;2023-06-24T05:19:57;20.0;65.7
78516;SHT31;67815;51.990;5.688;2023-06-24T05:22:27;20.0;65.9
78516;SHT31;67815;51.990;5.688;2023-06-24T05:24:56;20.0;65.9
78516;SHT31;67815;51.990;5.688;2023-06-24T05:27:28;20.0;66.1
78516;SHT31;67815;51.990;5.688;2023-06-24T05:29:57;20.1;66.4
78516;SHT31;67815;51.990;5.688;2023-06-24T05:32:27;20.1;65.9
78516;SHT31;67815;51.990;5.688;2023-06-24T05:34:57;20.1;65.4
78516;SHT31;67815;51.990;5.688;2023-06-24T05:37:26;20.2;65.7
78516;SHT31;67815;51.990;5.688;2023-06-24T05:39:56;20.2;65.8
78516;SHT31;67815;51.990;5.688;2023-06-24T05:42:29;20.2;65.8
78516;SHT31;67815;51.990;5.688;2023-06-24T05:44:58;20.3;64.0
78516;SHT31;67815;51.990;5.688;2023-06-24T05:47:28;20.3;65.8
78516;SHT31;67815;51.990;5.688;2023-06-24T05:49:57;20.4;64.6
78516;SHT31;67815;51.990;5.688;2023-06-24T05:52:27;20.4;63.9
78516;SHT31;67815;51.990;5.688;2023-06-24T05:54:57;20.4;63.6
78516;SHT31;67815;51.990;5.688;2023-06-24T05:57:27;20.5;64.6
78516;SHT31;67815;51.990;5.688;2023-06-24T05:59:57;20.6;63.5
78516;SHT31;67815;51.990;5.688;2023-06-24T06:02:26;20.6;64.1
78516;SHT31;67815;51.990;5.688;2023-06-24T06:04:58;20.7;63.9
78516;SHT31;67815;51.990;5.688;2023-06-24T06:07:29;20.8;63.6
78516;SHT31;67815;51.990;5.688;2023-06-24T06:09:59;20.8;62.8
78516;SHT31;67815;51.990;5.688;2023-06-24T06:12:28;20.9;63.6
78516;SHT31;67815;51.990;5.688;2023-06-24T06:14:58;20.9;61.7
78516;SHT31;67815;51.990;5.688;2023-06-24T06:17:27;21.0;61.6
78516;SHT31;67815;51.990;5.688;2023-06-24T06:19:57;21.0;61.7
78516;SHT31;67815;51.990;5.688;2023-06-24T06:22:27;21.1;62.0
78516;SHT31;67815;51.990;5.688;2023-06-24T06:24:56;21.2;62.1
78516;SHT31;67815;51.990;5.688;2023-06-24T06:27:26;21.2;61.6
78516;SHT31;67815;51.990;5.688;2023-06-24T06:29:55;21.3;62.5
78516;SHT31;67815;51.990;5.688;2023-06-24T06:32:25;21.3;62.1
78516;SHT31;67815;51.990;5.688;2023-06-24T06:34:55;21.4;61.6
78516;SHT31;67815;51.990;5.688;2023-06-24T06:37:24;21.4;61.6
78516;SHT31;67815;51.990;5.688;2023-06-24T06:39:54;21.5;61.8
78516;SHT31;67815;51.990;5.688;2023-06-24T06:42:24;21.5;59.7
78516;SHT31;67815;51.990;5.688;2023-06-24T06:44:54;21.6;60.3
78516;SHT31;67815;51.990;5.688;2023-06-24T06:47:24;21.6;60.0
78516;SHT31;67815;51.990;5.688;2023-06-24T06:49:53;21.7;61.0
78516;SHT31;67815;51.990;5.688;2023-06-24T06:52:23;21.7;60.8
78516;SHT31;67815;51.990;5.688;2023-06-24T06:54:55;21.8;60.3
78516;SHT31;67815;51.990;5.688;2023-06-24T06:57:25;21.8;59.5
78516;SHT31;67815;51.990;5.688;2023-06-24T06:59:55;21.8;59.1
78516;SHT31;67815;51.990;5.688;2023-06-24T07:02:25;21.9;59.5
78516;SHT31;67815;51.990;5.688;2023-06-24T07:04:55;21.9;59.0
78516;SHT31;67815;51.990;5.688;2023-06-24T07:07:26;22.0;59.3
78516;SHT31;67815;51.990;5.688;2023-06-24T07:09:56;22.0;59.2
78516;SHT31;67815;51.990;5.688;2023-06-24T07:12:26;22.1;58.3
78516;SHT31;67815;51.990;5.688;2023-06-24T07:14:56;22.1;55.6
78516;SHT31;67815;51.990;5.688;2023-06-24T07:17:25;22.1;54.3
78516;SHT31;67815;51.990;5.688;2023-06-24T07:19:55;22.2;55.8
78516;SHT31;67815;51.990;5.688;2023-06-24T07:22:26;22.2;55.2
78516;SHT31;67815;51.990;5.688;2023-06-24T07:24:58;22.2;55.5
78516;SHT31;67815;51.990;5.688;2023-06-24T07:27:28;22.3;56.1
78516;SHT31;67815;51.990;5.688;2023-06-24T07:29:58;22.3;55.9
78516;SHT31;67815;51.990;5.688;2023-06-24T07:32:28;22.3;55.3
78516;SHT31;67815;51.990;5.688;2023-06-24T07:34:57;22.4;56.2
78516;SHT31;67815;51.990;5.688;2023-06-24T07:37:27;22.4;53.7
78516;SHT31;67815;51.990;5.688;2023-06-24T07:39:56;22.4;53.3
78516;SHT31;67815;51.990;5.688;2023-06-24T07:42:26;22.5;53.3
78516;SHT31;67815;51.990;5.688;2023-06-24T07:44:56;22.5;53.1
78516;SHT31;67815;51.990;5.688;2023-06-24T07:47:25;22.6;53.6
78516;SHT31;67815;51.990;5.688;2023-06-24T07:49:56;22.6;51.8
78516;SHT31;67815;51.990;5.688;2023-06-24T07:52:25;22.7;53.7
78516;SHT31;67815;51.990;5.688;2023-06-24T07:54:55;22.7;52.3
78516;SHT31;67815;51.990;5.688;2023-06-24T07:57:26;22.8;52.0
78516;SHT31;67815;51.990;5.688;2023-06-24T07:59:57;22.8;53.4
78516;SHT31;67815;51.990;5.688;2023-06-24T08:02:26;22.8;52.6
78516;SHT31;67815;51.990;5.688;2023-06-24T08:04:56;22.9;53.5
78516;SHT31;67815;51.990;5.688;2023-06-24T08:07:26;22.9;51.7
78516;SHT31;67815;51.990;5.688;2023-06-24T08:09:55;22.9;50.7
78516;SHT31;67815;51.990;5.688;2023-06-24T08:12:25;23.0;50.2
78516;SHT31;67815;51.990;5.688;2023-06-24T08:14:54;23.0;49.5
78516;SHT31;67815;51.990;5.688;2023-06-24T08:17:24;23.0;51.5
78516;SHT31;67815;51.990;5.688;2023-06-24T08:19:53;23.0;50.1
78516;SHT31;67815;51.990;5.688;2023-06-24T08:22:23;23.0;51.6
78516;SHT31;67815;51.990;5.688;2023-06-24T08:24:54;23.1;52.0
78516;SHT31;67815;51.990;5.688;2023-06-24T08:27:24;23.1;52.6
78516;SHT31;67815;51.990;5.688;2023-06-24T08:29:54;23.1;51.0
78516;SHT31;67815;51.990;5.688;2023-06-24T08:32:23;23.1;50.1
78516;SHT31;67815;51.990;5.688;2023-06-24T08:34:53;23.2;49.7
78516;SHT31;67815;51.990;5.688;2023-06-24T08:37:22;23.2;50.9
78516;SHT31;67815;51.990;5.688;2023-06-24T08:39:52;23.2;49.5
78516;SHT31;67815;51.990;5.688;2023-06-24T08:42:22;23.3;50.4
78516;SHT31;67815;51.990;5.688;2023-06-24T08:44:52;23.3;50.3
78516;SHT31;67815;51.990;5.688;2023-06-24T08:47:24;23.4;47.7
78516;SHT31;67815;51.990;5.688;2023-06-24T08:50:03;23.4;47.3
78516;SHT31;67815;51.990;5.688;2023-06-24T08:52:36;23.5;47.5
78516;SHT31;67815;51.990;5.688;2023-06-24T08:55:11;23.5;47.3
78516;SHT31;67815;51.990;5.688;2023-06-24T08:57:43;23.6;49.4
78516;SHT31;67815;51.990;5.688;2023-06-24T09:00:13;23.6;51.1
78516;SHT31;67815;51.990;5.688;2023-06-24T09:02:43;23.7;50.9
78516;SHT31;67815;51.990;5.688;2023-06-24T09:05:13;23.7;48.8
78516;SHT31;67815;51.990;5.688;2023-06-24T09:07:43;23.8;50.1
78516;SHT31;67815;51.990;5.688;2023-06-24T09:10:32;23.9;51.5
78516;SHT31;67815;51.990;5.688;2023-06-24T09:13:04;23.9;52.5
78516;SHT31;67815;51.990;5.688;2023-06-24T09:15:36;24.0;51.2
78516;SHT31;67815;51.990;5.688;2023-06-24T09:18:08;24.0;50.5
78516;SHT31;67815;51.990;5.688;2023-06-24T09:20:41;24.1;49.8
78516;SHT31;67815;51.990;5.688;2023-06-24T09:23:17;24.1;47.9
78516;SHT31;67815;51.990;5.688;2023-06-24T09:25:55;24.1;49.1
78516;SHT31;67815;51.990;5.688;2023-06-24T09:28:28;24.2;49.5
78516;SHT31;67815;51.990;5.688;2023-06-24T09:31:09;24.2;48.7
78516;SHT31;67815;51.990;5.688;2023-06-24T09:33:40;24.2;48.7
78516;SHT31;67815;51.990;5.688;2023-06-24T09:36:14;24.3;48.4
78516;SHT31;67815;51.990;5.688;2023-06-24T09:38:46;24.3;50.2
78516;SHT31;67815;51.990;5.688;2023-06-24T09:41:16;24.3;49.3
78516;SHT31;67815;51.990;5.688;2023-06-24T09:43:46;24.3;50.2
78516;SHT31;67815;51.990;5.688;2023-06-24T09:46:16;24.3;47.9
78516;SHT31;67815;51.990;5.688;2023-06-24T09:48:46;24.4;48.3
78516;SHT31;67815;51.990;5.688;2023-06-24T09:51:16;24.4;50.2
78516;SHT31;67815;51.990;5.688;2023-06-24T09:53:48;24.5;48.5
78516;SHT31;67815;51.990;5.688;2023-06-24T09:56:22;24.6;47.0
78516;SHT31;67815;51.990;5.688;2023-06-24T09:58:54;24.8;47.6
78516;SHT31;67815;51.990;5.688;2023-06-24T10:01:24;25.0;47.9
78516;SHT31;67815;51.990;5.688;2023-06-24T10:03:57;25.2;46.2
78516;SHT31;67815;51.990;5.688;2023-06-24T10:06:28;25.3;46.3
78516;SHT31;67815;51.990;5.688;2023-06-24T10:08:59;25.4;45.6
78516;SHT31;67815;51.990;5.688;2023-06-24T10:11:29;25.4;45.9
78516;SHT31;67815;51.990;5.688;2023-06-24T10:14:00;25.5;46.3
78516;SHT31;67815;51.990;5.688;2023-06-24T10:16:30;25.5;46.5
78516;SHT31;67815;51.990;5.688;2023-06-24T10:19:03;25.5;47.4
78516;SHT31;67815;51.990;5.688;2023-06-24T10:21:46;25.5;47.6
78516;SHT31;67815;51.990;5.688;2023-06-24T10:24:30;25.5;47.8
78516;SHT31;67815;51.990;5.688;2023-06-24T10:27:06;25.5;47.5
78516;SHT31;67815;51.990;5.688;2023-06-24T10:29:37;25.5;46.2
78516;SHT31;67815;51.990;5.688;2023-06-24T10:32:08;25.5;47.4
78516;SHT31;67815;51.990;5.688;2023-06-24T10:34:42;25.5;47.3
78516;SHT31;67815;51.990;5.688;2023-06-24T10:37:14;25.5;48.5
78516;SHT31;67815;51.990;5.688;2023-06-24T10:39:49;25.6;48.1
78516;SHT31;67815;51.990;5.688;2023-06-24T10:42:37;25.6;47.9
78516;SHT31;67815;51.990;5.688;2023-06-24T10:45:17;25.6;48.3
78516;SHT31;67815;51.990;5.688;2023-06-24T10:47:48;25.6;49.2
78516;SHT31;67815;51.990;5.688;2023-06-24T10:50:21;25.7;46.6
78516;SHT31;67815;51.990;5.688;2023-06-24T10:52:52;25.7;46.2
78516;SHT31;67815;51.990;5.688;2023-06-24T10:55:25;25.7;45.8
78516;SHT31;67815;51.990;5.688;2023-06-24T10:58:08;25.8;47.5
78516;SHT31;67815;51.990;5.688;2023-06-24T11:00:40;25.8;46.9
78516;SHT31;67815;51.990;5.688;2023-06-24T11:03:12;25.8;47.4
78516;SHT31;67815;51.990;5.688;2023-06-24T11:05:45;25.9;47.4
78516;SHT31;67815;51.990;5.688;2023-06-24T11:08:15;25.9;47.1
78516;SHT31;67815;51.990;5.688;2023-06-24T11:10:47;26.0;46.9
78516;SHT31;67815;51.990;5.688;2023-06-24T11:13:20;26.0;46.0
78516;SHT31;67815;51.990;5.688;2023-06-24T11:15:53;26.1;44.7
78516;SHT31;67815;51.990;5.688;2023-06-24T11:18:38;26.2;46.5
78516;SHT31;67815;51.990;5.688;2023-06-24T11:21:10;26.2;46.0
78516;SHT31;67815;51.990;5.688;2023-06-24T11:23:40;26.3;45.4
78516;SHT31;67815;51.990;5.688;2023-06-24T11:26:11;26.3;44.6
78516;SHT31;67815;51.990;5.688;2023-06-24T11:28:42;26.3;45.6
78516;SHT31;67815;51.990;5.688;2023-06-24T11:31:14;26.4;45.9
78516;SHT31;67815;51.990;5.688;2023-06-24T11:33:48;26.4;46.8
78516;SHT31;67815;51.990;5.688;2023-06-24T11:36:18;26.5;47.6
78516;SHT31;67815;51.990;5.688;2023-06-24T11:38:49;26.5;47.6
78516;SHT31;67815;51.990;5.688;2023-06-24T11:41:21;26.6;46.4
78516;SHT31;67815;51.990;5.688;2023-06-24T11:43:53;26.6;45.8
78516;SHT31;67815;51.990;5.688;2023-06-24T11:46:24;26.7;47.4
78516;SHT31;67815;51.990;5.688;2023-06-24T11:49:04;26.7;45.9
78516;SHT31;67815;51.990;5.688;2023-06-24T11:51:35;26.8;45.6
78516;SHT31;67815;51.990;5.688;2023-06-24T11:54:09;26.8;46.0
78516;SHT31;67815;51.990;5.688;2023-06-24T11:56:40;26.9;45.8
78516;SHT31;67815;51.990;5.688;2023-06-24T11:59:18;26.9;45.4
78516;SHT31;67815;51.990;5.688;2023-06-24T12:01:54;27.0;45.7
78516;SHT31;67815;51.990;5.688;2023-06-24T12:04:30;27.0;46.7
78516;SHT31;67815;51.990;5.688;2023-06-24T12:07:01;27.1;45.3
78516;SHT31;67815;51.990;5.688;2023-06-24T12:09:31;27.1;44.2
78516;SHT31;67815;51.990;5.688;2023-06-24T12:12:00;27.2;43.9
78516;SHT31;67815;51.990;5.688;2023-06-24T12:14:30;27.2;46.8
78516;SHT31;67815;51.990;5.688;2023-06-24T12:17:00;27.3;44.7
78516;SHT31;67815;51.990;5.688;2023-06-24T12:19:30;27.3;44.7
78516;SHT31;67815;51.990;5.688;2023-06-24T12:21:59;27.3;45.7
78516;SHT31;67815;51.990;5.688;2023-06-24T12:24:29;27.4;45.1
78516;SHT31;67815;51.990;5.688;2023-06-24T12:27:01;27.4;44.4
78516;SHT31;67815;51.990;5.688;2023-06-24T12:29:31;27.4;45.6
78516;SHT31;67815;51.990;5.688;2023-06-24T12:32:01;27.5;44.7
78516;SHT31;67815;51.990;5.688;2023-06-24T12:34:31;27.5;44.6
78516;SHT31;67815;51.990;5.688;2023-06-24T12:37:00;27.6;43.5
78516;SHT31;67815;51.990;5.688;2023-06-24T12:39:30;27.6;44.4
78516;SHT31;67815;51.990;5.688;2023-06-24T12:41:59;27.6;45.3
78516;SHT31;67815;51.990;5.688;2023-06-24T12:44:29;27.7;44.5
78516;SHT31;67815;51.990;5.688;2023-06-24T12:46:59;27.7;44.0
78516;SHT31;67815;51.990;5.688;2023-06-24T12:49:30;27.8;44.0
78516;SHT31;67815;51.990;5.688;2023-06-24T12:52:00;27.8;43.7
78516;SHT31;67815;51.990;5.688;2023-06-24T12:54:30;27.9;44.0
78516;SHT31;67815;51.990;5.688;2023-06-24T12:57:00;27.9;44.3
78516;SHT31;67815;51.990;5.688;2023-06-24T12:59:30;28.0;43.6
78516;SHT31;67815;51.990;5.688;2023-06-24T13:02:00;28.0;43.7
78516;SHT31;67815;51.990;5.688;2023-06-24T13:04:32;28.1;43.0
78516;SHT31;67815;51.990;5.688;2023-06-24T13:07:02;28.1;43.5
78516;SHT31;67815;51.990;5.688;2023-06-24T13:09:33;28.2;42.3
78516;SHT31;67815;51.990;5.688;2023-06-24T13:12:03;28.2;41.8
78516;SHT31;67815;51.990;5.688;2023-06-24T13:14:35;28.3;43.1
78516;SHT31;67815;51.990;5.688;2023-06-24T13:17:06;28.3;43.7
78516;SHT31;67815;51.990;5.688;2023-06-24T13:19:36;28.4;41.3
78516;SHT31;67815;51.990;5.688;2023-06-24T13:22:06;28.4;41.3
78516;SHT31;67815;51.990;5.688;2023-06-24T13:24:35;28.5;41.6
78516;SHT31;67815;51.990;5.688;2023-06-24T13:27:06;28.5;43.7
78516;SHT31;67815;51.990;5.688;2023-06-24T13:29:38;28.5;43.5
78516;SHT31;67815;51.990;5.688;2023-06-24T13:32:09;28.6;43.6
78516;SHT31;67815;51.990;5.688;2023-06-24T13:34:41;28.6;42.1
78516;SHT31;67815;51.990;5.688;2023-06-24T13:37:10;28.7;42.0
78516;SHT31;67815;51.990;5.688;2023-06-24T13:39:40;28.7;41.8
78516;SHT31;67815;51.990;5.688;2023-06-24T13:42:10;28.8;41.5
78516;SHT31;67815;51.990;5.688;2023-06-24T13:44:40;28.8;42.5
78516;SHT31;67815;51.990;5.688;2023-06-24T13:47:09;28.8;42.2
78516;SHT31;67815;51.990;5.688;2023-06-24T13:49:40;28.8;42.7
78516;SHT31;67815;51.990;5.688;2023-06-24T13:52:10;28.8;41.4
78516;SHT31;67815;51.990;5.688;2023-06-24T13:54:40;28.8;42.4
78516;SHT31;67815;51.990;5.688;2023-06-24T13:57:10;28.9;41.1
78516;SHT31;67815;51.990;5.688;2023-06-24T13:59:39;28.9;41.4
78516;SHT31;67815;51.990;5.688;2023-06-24T14:02:09;28.9;41.6
78516;SHT31;67815;51.990;5.688;2023-06-24T14:04:40;28.9;42.5
78516;SHT31;67815;51.990;5.688;2023-06-24T14:07:10;28.9;41.4
78516;SHT31;67815;51.990;5.688;2023-06-24T14:09:40;28.9;41.5
78516;SHT31;67815;51.990;5.688;2023-06-24T14:12:11;28.9;42.0
78516;SHT31;67815;51.990;5.688;2023-06-24T14:14:40;29.0;41.3
78516;SHT31;67815;51.990;5.688;2023-06-24T14:17:12;29.0;41.2
78516;SHT31;67815;51.990;5.688;2023-06-24T14:19:42;29.0;41.6
78516;SHT31;67815;51.990;5.688;2023-06-24T14:22:16;29.0;42.8
78516;SHT31;67815;51.990;5.688;2023-06-24T14:24:46;29.0;40.8
78516;SHT31;67815;51.990;5.688;2023-06-24T14:27:16;29.0;43.0
78516;SHT31;67815;51.990;5.688;2023-06-24T14:29:46;29.0;42.7
78516;SHT31;67815;51.990;5.688;2023-06-24T14:32:15;29.1;42.4
78516;SHT31;67815;51.990;5.688;2023-06-24T14:34:45;29.1;43.5
78516;SHT31;67815;51.990;5.688;2023-06-24T14:37:15;29.2;43.7
78516;SHT31;67815;51.990;5.688;2023-06-24T14:39:45;29.2;42.4
78516;SHT31;67815;51.990;5.688;2023-06-24T14:42:14;29.3;42.9
78516;SHT31;67815;51.990;5.688;2023-06-24T14:44:44;29.3;43.8
78516;SHT31;67815;51.990;5.688;2023-06-24T14:47:14;29.3;42.2
78516;SHT31;67815;51.990;5.688;2023-06-24T14:49:44;29.3;41.9
78516;SHT31;67815;51.990;5.688;2023-06-24T14:52:13;29.3;41.1
78516;SHT31;67815;51.990;5.688;2023-06-24T14:54:43;29.4;40.8
78516;SHT31;67815;51.990;5.688;2023-06-24T14:57:13;29.4;42.6
78516;SHT31;67815;51.990;5.688;2023-06-24T14:59:43;29.4;41.9
78516;SHT31;67815;51.990;5.688;2023-06-24T15:02:14;29.5;41.3
78516;SHT31;67815;51.990;5.688;2023-06-24T15:04:45;29.5;41.4
78516;SHT31;67815;51.990;5.688;2023-06-24T15:07:14;29.5;42.3
78516;SHT31;67815;51.990;5.688;2023-06-24T15:09:45;29.6;43.7
78516;SHT31;67815;51.990;5.688;2023-06-24T15:12:14;29.6;42.8
78516;SHT31;67815;51.990;5.688;2023-06-24T15:14:44;29.6;42.7
78516;SHT31;67815;51.990;5.688;2023-06-24T15:17:15;29.7;44.7
78516;SHT31;67815;51.990;5.688;2023-06-24T15:19:45;29.7;41.7
78516;SHT31;67815;51.990;5.688;2023-06-24T15:22:15;29.8;43.5
78516;SHT31;67815;51.990;5.688;2023-06-24T15:24:44;29.9;42.6
78516;SHT31;67815;51.990;5.688;2023-06-24T15:27:14;29.9;41.8
78516;SHT31;67815;51.990;5.688;2023-06-24T15:29:44;29.9;40.9
78516;SHT31;67815;51.990;5.688;2023-06-24T15:32:13;30.0;40.5
78516;SHT31;67815;51.990;5.688;2023-06-24T15:34:43;30.0;41.8
78516;SHT31;67815;51.990;5.688;2023-06-24T15:37:13;30.0;44.0
78516;SHT31;67815;51.990;5.688;2023-06-24T15:39:43;30.1;42.2
78516;SHT31;67815;51.990;5.688;2023-06-24T15:42:13;30.1;44.3
78516;SHT31;67815;51.990;5.688;2023-06-24T15:44:42;30.1;41.2
78516;SHT31;67815;51.990;5.688;2023-06-24T15:47:12;30.2;41.1
78516;SHT31;67815;51.990;5.688;2023-06-24T15:49:42;30.2;40.9
78516;SHT31;67815;51.990;5.688;2023-06-24T15:52:11;30.2;41.6
78516;SHT31;67815;51.990;5.688;2023-06-24T15:54:41;30.2;40.6
78516;SHT31;67815;51.990;5.688;2023-06-24T15:57:11;30.2;40.8
78516;SHT31;67815;51.990;5.688;2023-06-24T15:59:40;30.2;40.0
78516;SHT31;67815;51.990;5.688;2023-06-24T16:02:10;30.2;40.5
78516;SHT31;67815;51.990;5.688;2023-06-24T16:04:39;30.2;41.4
78516;SHT31;67815;51.990;5.688;2023-06-24T16:07:09;30.2;41.5
78516;SHT31;67815;51.990;5.688;2023-06-24T16:09:38;30.1;41.3
78516;SHT31;67815;51.990;5.688;2023-06-24T16:12:09;30.1;43.2
78516;SHT31;67815;51.990;5.688;2023-06-24T16:14:38;30.1;41.7
78516;SHT31;67815;51.990;5.688;2023-06-24T16:17:08;30.1;41.6
78516;SHT31;67815;51.990;5.688;2023-06-24T16:19:37;30.1;40.8
78516;SHT31;67815;51.990;5.688;2023-06-24T16:22:07;30.1;42.9
78516;SHT31;67815;51.990;5.688;2023-06-24T16:24:37;30.1;41.0
78516;SHT31;67815;51.990;5.688;2023-06-24T16:27:06;30.1;41.3